Time;durP1;ratioP1;P1;durP2;ratioP2;P2;SDS_P1;SDS_P2;PMS_P1;PMS_P2;Temp;Humidity;BMP_temperature;BMP_pressure;BME280_temperature;BME280_humidity;BME280_pressure;Samples;Min_cycle;Max_cycle;Signal;HPM_P1;HPM_P2
2023/05/21 00:01:15;;;;;;;27.40;17.50;;;;;;;-128.00;-1.00;-1.00;18497;348;7505869;-32
2023/05/21 00:03:44;;;;;;;28.50;15.60;;;;;;;-128.00;-1.00;-1.00;18469;295;7506715;-32
2023/05/21 00:06:14;;;;;;;23.80;16.30;;;;;;;-128.00;-1.00;-1.00;18490;295;7504154;-32
2023/05/21 00:08:41;;;;;;;26.60;16.50;;;;;;;-128.00;-1.00;-1.00;18483;295;7504384;-32
2023/05/21 00:11:07;;;;;;;22.40;16.20;;;;;;;-128.00;-1.00;-1.00;18456;295;7505193;-36
2023/05/21 00:13:32;;;;;;;29.40;18.00;;;;;;;-128.00;-1.00;-1.00;18471;339;7506121;-31
2023/05/21 00:15:58;;;;;;;27.80;16.90;;;;;;;-128.00;-1.00;-1.00;18468;295;7504306;-35
2023/05/21 00:18:24;;;;;;;21.20;16.60;;;;;;;-128.00;-1.00;-1.00;18884;288;7505116;-31
2023/05/21 00:20:50;;;;;;;28.30;19.10;;;;;;;-128.00;-1.00;-1.00;18872;348;7504455;-32
2023/05/21 00:23:17;;;;;;;22.00;15.20;;;;;;;-128.00;-1.00;-1.00;18884;324;7506359;-33
2023/05/21 00:25:44;;;;;;;21.80;15.00;;;;;;;-128.00;-1.00;-1.00;18493;288;7505171;-31
2023/05/21 00:28:10;;;;;;;17.50;13.80;;;;;;;-128.00;-1.00;-1.00;18454;296;7505928;-31
2023/05/21 00:30:36;;;;;;;19.80;15.60;;;;;;;-128.00;-1.00;-1.00;18502;295;7504909;-36
2023/05/21 00:33:01;;;;;;;21.80;15.30;;;;;;;-128.00;-1.00;-1.00;18478;295;7506004;-37
2023/05/21 00:35:28;;;;;;;18.50;13.70;;;;;;;-128.00;-1.00;-1.00;18481;295;7504429;-35
2023/05/21 00:37:54;;;;;;;18.20;12.40;;;;;;;-128.00;-1.00;-1.00;18451;296;7505043;-35
2023/05/21 00:40:19;;;;;;;19.80;12.00;;;;;;;-128.00;-1.00;-1.00;18485;295;7504169;-34
2023/05/21 00:42:46;;;;;;;15.20;12.80;;;;;;;-128.00;-1.00;-1.00;18478;288;7504718;-32
2023/05/21 00:45:13;;;;;;;17.60;13.40;;;;;;;-128.00;-1.00;-1.00;18486;295;7505435;-35
2023/05/21 00:47:40;;;;;;;16.40;14.60;;;;;;;-128.00;-1.00;-1.00;18491;295;7504977;-33
2023/05/21 00:50:07;;;;;;;15.90;12.50;;;;;;;-128.00;-1.00;-1.00;18468;297;7504716;-31
2023/05/21 00:52:40;;;;;;;18.60;12.10;;;;;;;-128.00;-1.00;-1.00;18499;288;7506505;-35
2023/05/21 00:55:07;;;;;;;22.00;12.80;;;;;;;-128.00;-1.00;-1.00;18492;295;7504183;-35
2023/05/21 00:57:33;;;;;;;23.10;15.10;;;;;;;-128.00;-1.00;-1.00;18483;295;7505045;-32
2023/05/21 00:59:59;;;;;;;17.20;14.40;;;;;;;-128.00;-1.00;-1.00;18506;295;7506032;-36
2023/05/21 01:02:25;;;;;;;21.10;15.00;;;;;;;-128.00;-1.00;-1.00;18519;288;7504511;-36
2023/05/21 01:04:53;;;;;;;20.00;14.60;;;;;;;-128.00;-1.00;-1.00;18470;297;7504610;-37
2023/05/21 01:07:19;;;;;;;16.40;13.00;;;;;;;-128.00;-1.00;-1.00;18438;300;7504446;-32
2023/05/21 01:09:45;;;;;;;18.90;14.00;;;;;;;-128.00;-1.00;-1.00;18887;296;7505845;-35
2023/05/21 01:12:11;;;;;;;16.60;13.70;;;;;;;-128.00;-1.00;-1.00;18906;288;7504284;-34
2023/05/21 01:14:38;;;;;;;23.80;15.30;;;;;;;-128.00;-1.00;-1.00;18885;296;7505381;-36
2023/05/21 01:17:05;;;;;;;24.10;15.10;;;;;;;-128.00;-1.00;-1.00;18912;295;7506388;-33
2023/05/21 01:19:31;;;;;;;23.90;13.50;;;;;;;-128.00;-1.00;-1.00;18513;288;7504720;-31
2023/05/21 01:22:03;;;;;;;19.10;14.30;;;;;;;-128.00;-1.00;-1.00;18513;296;7505331;-36
2023/05/21 01:24:28;;;;;;;;;;;;;;;-128.00;-1.00;-1.00;18521;287;7504470;-31
2023/05/21 01:26:54;;;;;;;26.60;14.10;;;;;;;-128.00;-1.00;-1.00;18459;297;7504194;-34
2023/05/21 01:29:20;;;;;;;17.10;12.50;;;;;;;-128.00;-1.00;-1.00;18478;288;7505819;-31
2023/05/21 01:32:08;;;;;;;18.50;13.40;;;;;;;-128.00;-1.00;-1.00;18511;296;7504532;-31
2023/05/21 01:34:48;;;;;;;21.60;14.00;;;;;;;-128.00;-1.00;-1.00;18498;296;7504304;-36
2023/05/21 01:37:18;;;;;;;17.20;13.20;;;;;;;-128.00;-1.00;-1.00;18496;296;7505025;-36
2023/05/21 01:39:46;;;;;;;16.70;13.40;;;;;;;-128.00;-1.00;-1.00;18514;336;7504566;-36
2023/05/21 01:42:12;;;;;;;16.10;13.20;;;;;;;-128.00;-1.00;-1.00;18505;288;7504532;-36
2023/05/21 01:44:38;;;;;;;17.30;13.50;;;;;;;-128.00;-1.00;-1.00;18484;347;7505565;-36
2023/05/21 01:47:04;;;;;;;17.70;12.00;;;;;;;-128.00;-1.00;-1.00;18481;288;7504539;-36
2023/05/21 01:49:29;;;;;;;16.50;11.30;;;;;;;-128.00;-1.00;-1.00;18448;297;7506049;-36
2023/05/21 01:51:56;;;;;;;18.50;12.30;;;;;;;-128.00;-1.00;-1.00;18879;295;7505520;-31
2023/05/21 01:54:22;;;;;;;22.00;10.90;;;;;;;-128.00;-1.00;-1.00;18482;295;7504565;-34
2023/05/21 01:56:52;;;;;;;14.10;9.90;;;;;;;-128.00;-1.00;-1.00;18481;284;7506171;-35
2023/05/21 01:59:19;;;;;;;23.20;11.80;;;;;;;-128.00;-1.00;-1.00;18463;295;7504682;-31
2023/05/21 02:01:45;;;;;;;13.00;10.20;;;;;;;-128.00;-1.00;-1.00;18466;336;7504401;-35
2023/05/21 02:04:11;;;;;;;30.90;10.80;;;;;;;-128.00;-1.00;-1.00;18482;295;7505988;-31
2023/05/21 02:06:38;;;;;;;13.60;9.10;;;;;;;-128.00;-1.00;-1.00;18490;347;7505808;-32
2023/05/21 02:09:04;;;;;;;14.60;9.90;;;;;;;-128.00;-1.00;-1.00;18463;311;7506011;-35
2023/05/21 02:11:30;;;;;;;11.00;9.00;;;;;;;-128.00;-1.00;-1.00;18473;288;7505205;-30
2023/05/21 02:13:56;;;;;;;20.70;9.70;;;;;;;-128.00;-1.00;-1.00;18473;288;7506174;-35
2023/05/21 02:16:22;;;;;;;14.10;10.50;;;;;;;-128.00;-1.00;-1.00;18495;296;7506813;-35
2023/05/21 02:18:52;;;;;;;14.70;8.50;;;;;;;-128.00;-1.00;-1.00;18450;296;7505960;-31
2023/05/21 02:21:19;;;;;;;11.80;9.60;;;;;;;-128.00;-1.00;-1.00;18496;295;7504483;-36
2023/05/21 02:23:45;;;;;;;10.40;8.90;;;;;;;-128.00;-1.00;-1.00;18460;296;7504724;-32
2023/05/21 02:26:10;;;;;;;13.40;9.20;;;;;;;-128.00;-1.00;-1.00;18491;296;7506398;-37
2023/05/21 02:28:36;;;;;;;13.40;9.40;;;;;;;-128.00;-1.00;-1.00;18487;288;7504621;-30
2023/05/21 02:31:02;;;;;;;11.50;9.00;;;;;;;-128.00;-1.00;-1.00;18847;298;7504676;-33
2023/05/21 02:33:29;;;;;;;14.80;10.60;;;;;;;-128.00;-1.00;-1.00;18879;296;7504432;-31
2023/05/21 02:35:55;;;;;;;10.90;8.70;;;;;;;-128.00;-1.00;-1.00;18892;296;7504518;-35
2023/05/21 02:38:21;;;;;;;10.50;8.10;;;;;;;-128.00;-1.00;-1.00;18858;341;7504403;-35
2023/05/21 02:40:49;;;;;;;18.70;9.10;;;;;;;-128.00;-1.00;-1.00;18467;296;7506541;-31
2023/05/21 02:43:15;;;;;;;10.70;9.40;;;;;;;-128.00;-1.00;-1.00;18509;311;7504437;-35
2023/05/21 02:45:41;;;;;;;14.50;10.10;;;;;;;-128.00;-1.00;-1.00;18858;296;7505026;-31
2023/05/21 02:48:07;;;;;;;14.20;9.30;;;;;;;-128.00;-1.00;-1.00;18874;296;7504668;-33
2023/05/21 02:50:34;;;;;;;10.80;9.30;;;;;;;-128.00;-1.00;-1.00;18884;347;7504802;-32
2023/05/21 02:53:00;;;;;;;13.80;10.20;;;;;;;-128.00;-1.00;-1.00;18880;296;7505575;-32
2023/05/21 02:55:26;;;;;;;13.30;9.80;;;;;;;-128.00;-1.00;-1.00;18877;287;7504428;-32
2023/05/21 02:57:52;;;;;;;13.20;10.20;;;;;;;-128.00;-1.00;-1.00;18896;295;7505076;-36
2023/05/21 03:00:19;;;;;;;12.70;9.90;;;;;;;-128.00;-1.00;-1.00;18880;303;7505790;-33
2023/05/21 03:02:45;;;;;;;17.40;11.10;;;;;;;-128.00;-1.00;-1.00;18904;296;7504888;-35
2023/05/21 03:05:11;;;;;;;17.30;10.60;;;;;;;-128.00;-1.00;-1.00;18898;296;7505104;-35
2023/05/21 03:07:37;;;;;;;14.10;10.50;;;;;;;-128.00;-1.00;-1.00;18880;341;7504647;-33
2023/05/21 03:10:04;;;;;;;13.30;11.40;;;;;;;-128.00;-1.00;-1.00;18861;296;7504407;-30
2023/05/21 03:12:29;;;;;;;21.00;9.80;;;;;;;-128.00;-1.00;-1.00;18470;295;7504470;-35
2023/05/21 03:14:55;;;;;;;12.40;9.40;;;;;;;-128.00;-1.00;-1.00;18483;311;7504947;-31
2023/05/21 03:17:21;;;;;;;15.30;11.10;;;;;;;-128.00;-1.00;-1.00;18841;295;7504558;-31
2023/05/21 03:19:48;;;;;;;15.30;9.60;;;;;;;-128.00;-1.00;-1.00;18496;296;7504668;-31
2023/05/21 03:22:14;;;;;;;10.60;8.40;;;;;;;-128.00;-1.00;-1.00;18497;287;7504132;-32
2023/05/21 03:24:41;;;;;;;12.20;9.90;;;;;;;-128.00;-1.00;-1.00;18477;296;7504308;-31
2023/05/21 03:27:06;;;;;;;19.70;9.80;;;;;;;-128.00;-1.00;-1.00;18492;348;7505085;-36
2023/05/21 03:29:32;;;;;;;13.80;9.10;;;;;;;-128.00;-1.00;-1.00;18471;295;7504560;-34
2023/05/21 03:31:59;;;;;;;9.90;8.30;;;;;;;-128.00;-1.00;-1.00;18476;295;7505074;-32
2023/05/21 03:34:25;;;;;;;14.10;9.70;;;;;;;-128.00;-1.00;-1.00;18461;288;7506688;-34
2023/05/21 03:36:50;;;;;;;10.10;8.30;;;;;;;-128.00;-1.00;-1.00;18481;288;7504843;-36
2023/05/21 03:39:16;;;;;;;18.20;9.20;;;;;;;-128.00;-1.00;-1.00;18465;296;7506779;-36
2023/05/21 03:41:42;;;;;;;14.70;9.70;;;;;;;-128.00;-1.00;-1.00;18889;295;7504774;-36
2023/05/21 03:44:08;;;;;;;16.70;9.50;;;;;;;-128.00;-1.00;-1.00;18916;296;7505456;-32
2023/05/21 03:46:34;;;;;;;22.00;9.80;;;;;;;-128.00;-1.00;-1.00;18866;297;7504167;-33
2023/05/21 03:49:01;;;;;;;15.50;9.80;;;;;;;-128.00;-1.00;-1.00;18886;288;7504520;-31
2023/05/21 03:51:29;;;;;;;13.80;9.90;;;;;;;-128.00;-1.00;-1.00;18899;288;7505447;-32
2023/05/21 03:53:57;;;;;;;10.30;7.50;;;;;;;-128.00;-1.00;-1.00;18451;296;7506147;-37
2023/05/21 03:56:23;;;;;;;14.80;13.30;;;;;;;-128.00;-1.00;-1.00;18466;295;7504620;-31
2023/05/21 03:58:49;;;;;;;12.50;11.20;;;;;;;-128.00;-1.00;-1.00;18484;307;7504863;-35
2023/05/21 04:01:16;;;;;;;35.60;29.30;;;;;;;-128.00;-1.00;-1.00;18468;348;7504828;-35
2023/05/21 04:03:43;;;;;;;29.60;23.90;;;;;;;-128.00;-1.00;-1.00;18464;296;7506212;-31
2023/05/21 04:06:09;;;;;;;12.90;9.00;;;;;;;-128.00;-1.00;-1.00;18475;296;7504590;-31
2023/05/21 04:08:36;;;;;;;39.50;29.30;;;;;;;-128.00;-1.00;-1.00;18470;319;7504532;-32
2023/05/21 04:11:02;;;;;;;31.40;17.10;;;;;;;-128.00;-1.00;-1.00;18484;288;7505460;-36
2023/05/21 04:13:28;;;;;;;35.50;23.00;;;;;;;-128.00;-1.00;-1.00;18474;296;7506275;-35
2023/05/21 04:15:54;;;;;;;64.00;43.90;;;;;;;-128.00;-1.00;-1.00;18881;296;7504568;-32
2023/05/21 04:18:22;;;;;;;13.20;10.10;;;;;;;-128.00;-1.00;-1.00;18477;295;7506241;-33
2023/05/21 04:20:48;;;;;;;39.70;20.90;;;;;;;-128.00;-1.00;-1.00;18484;288;7504714;-35
2023/05/21 04:23:14;;;;;;;19.00;13.70;;;;;;;-128.00;-1.00;-1.00;18480;296;7504274;-32
2023/05/21 04:25:40;;;;;;;33.20;27.60;;;;;;;-128.00;-1.00;-1.00;18509;288;7504251;-36
2023/05/21 04:28:06;;;;;;;8.40;6.90;;;;;;;-128.00;-1.00;-1.00;18499;347;7504897;-35
2023/05/21 04:30:34;;;;;;;28.00;21.00;;;;;;;-128.00;-1.00;-1.00;18497;296;7506621;-35
2023/05/21 04:33:01;;;;;;;11.50;8.50;;;;;;;-128.00;-1.00;-1.00;18540;288;7505629;-36
2023/05/21 04:35:27;;;;;;;10.20;8.20;;;;;;;-128.00;-1.00;-1.00;18469;320;7504658;-32
2023/05/21 04:37:53;;;;;;;17.30;14.70;;;;;;;-128.00;-1.00;-1.00;18881;296;7504683;-35
2023/05/21 04:40:23;;;;;;;18.10;11.60;;;;;;;-128.00;-1.00;-1.00;18852;297;7505724;-35
2023/05/21 04:42:49;;;;;;;57.20;43.50;;;;;;;-128.00;-1.00;-1.00;18470;296;7505320;-36
2023/05/21 04:45:16;;;;;;;11.20;8.60;;;;;;;-128.00;-1.00;-1.00;18498;296;7506061;-33
2023/05/21 04:47:42;;;;;;;20.70;6.10;;;;;;;-128.00;-1.00;-1.00;18463;297;7504559;-32
2023/05/21 04:50:09;;;;;;;24.20;13.30;;;;;;;-128.00;-1.00;-1.00;18478;339;7505275;-32
2023/05/21 04:52:35;;;;;;;12.70;6.50;;;;;;;-128.00;-1.00;-1.00;18497;315;7506049;-36
2023/05/21 04:55:02;;;;;;;15.30;11.30;;;;;;;-128.00;-1.00;-1.00;18452;309;7505971;-35
2023/05/21 04:57:28;;;;;;;12.00;9.30;;;;;;;-128.00;-1.00;-1.00;18475;296;7507073;-32
2023/05/21 04:59:55;;;;;;;11.40;10.20;;;;;;;-128.00;-1.00;-1.00;18497;296;7504698;-32
2023/05/21 05:02:20;;;;;;;7.30;5.10;;;;;;;-128.00;-1.00;-1.00;18472;296;7505463;-36
2023/05/21 05:04:46;;;;;;;18.30;12.90;;;;;;;-128.00;-1.00;-1.00;18489;308;7506194;-36
2023/05/21 05:07:12;;;;;;;59.50;34.60;;;;;;;-128.00;-1.00;-1.00;18459;296;7504218;-32
2023/05/21 05:09:38;;;;;;;5.60;4.40;;;;;;;-128.00;-1.00;-1.00;18499;347;7507282;-33
2023/05/21 05:12:04;;;;;;;7.50;6.00;;;;;;;-128.00;-1.00;-1.00;18894;347;7505210;-36
2023/05/21 05:14:30;;;;;;;6.40;5.70;;;;;;;-128.00;-1.00;-1.00;18474;288;7504970;-33
2023/05/21 05:16:59;;;;;;;11.00;7.70;;;;;;;-128.00;-1.00;-1.00;18917;336;7504982;-32
2023/05/21 05:19:25;;;;;;;5.10;3.50;;;;;;;-128.00;-1.00;-1.00;18464;297;7504544;-36
2023/05/21 05:21:51;;;;;;;10.40;5.30;;;;;;;-128.00;-1.00;-1.00;18457;300;7504488;-33
2023/05/21 05:24:17;;;;;;;4.40;3.70;;;;;;;-128.00;-1.00;-1.00;18501;296;7504748;-32
2023/05/21 05:26:43;;;;;;;6.20;3.60;;;;;;;-128.00;-1.00;-1.00;18498;295;7504790;-36
2023/05/21 05:29:08;;;;;;;3.60;3.30;;;;;;;-128.00;-1.00;-1.00;18518;347;7505892;-36
2023/05/21 05:31:34;;;;;;;4.30;3.90;;;;;;;-128.00;-1.00;-1.00;18872;295;7504280;-32
2023/05/21 05:34:01;;;;;;;4.90;4.40;;;;;;;-128.00;-1.00;-1.00;18888;296;7504277;-36
2023/05/21 05:36:27;;;;;;;7.50;4.70;;;;;;;-128.00;-1.00;-1.00;18885;295;7505308;-32
2023/05/21 05:38:53;;;;;;;4.70;3.50;;;;;;;-128.00;-1.00;-1.00;18903;296;7506155;-32
2023/05/21 05:41:19;;;;;;;10.90;6.60;;;;;;;-128.00;-1.00;-1.00;18879;295;7506122;-35
2023/05/21 05:43:46;;;;;;;5.30;4.60;;;;;;;-128.00;-1.00;-1.00;18900;296;7505021;-32
2023/05/21 05:46:12;;;;;;;16.40;9.00;;;;;;;-128.00;-1.00;-1.00;18880;296;7505369;-32
2023/05/21 05:48:38;;;;;;;4.40;4.00;;;;;;;-128.00;-1.00;-1.00;18889;295;7504416;-35
2023/05/21 05:51:04;;;;;;;6.30;4.00;;;;;;;-128.00;-1.00;-1.00;18895;295;7504522;-35
2023/05/21 05:53:31;;;;;;;8.60;4.70;;;;;;;-128.00;-1.00;-1.00;18868;348;7504586;-32
2023/05/21 05:55:58;;;;;;;11.90;7.70;;;;;;;-128.00;-1.00;-1.00;18908;347;7504409;-33
2023/05/21 05:58:24;;;;;;;4.20;3.80;;;;;;;-128.00;-1.00;-1.00;18486;296;7504545;-35
2023/05/21 06:00:51;;;;;;;3.90;3.20;;;;;;;-128.00;-1.00;-1.00;18487;296;7504514;-33
2023/05/21 06:03:16;;;;;;;3.40;3.10;;;;;;;-128.00;-1.00;-1.00;18490;296;7504506;-36
2023/05/21 06:05:42;;;;;;;48.00;26.30;;;;;;;-128.00;-1.00;-1.00;18451;296;7504164;-32
2023/05/21 06:08:08;;;;;;;16.00;9.20;;;;;;;-128.00;-1.00;-1.00;18893;296;7504313;-33
2023/05/21 06:10:35;;;;;;;19.90;11.80;;;;;;;-128.00;-1.00;-1.00;18880;296;7504398;-35
2023/05/21 06:13:01;;;;;;;4.90;4.20;;;;;;;-128.00;-1.00;-1.00;18867;297;7504584;-38
2023/05/21 06:15:27;;;;;;;6.50;4.60;;;;;;;-128.00;-1.00;-1.00;18896;296;7504645;-33
2023/05/21 06:17:53;;;;;;;4.70;3.30;;;;;;;-128.00;-1.00;-1.00;18900;296;7506446;-36
2023/05/21 06:20:19;;;;;;;3.90;3.30;;;;;;;-128.00;-1.00;-1.00;18883;287;7504581;-35
2023/05/21 06:22:46;;;;;;;3.60;3.30;;;;;;;-128.00;-1.00;-1.00;18889;284;7505538;-36
2023/05/21 06:25:12;;;;;;;3.70;3.20;;;;;;;-128.00;-1.00;-1.00;18896;296;7505387;-32
2023/05/21 06:27:38;;;;;;;6.20;3.60;;;;;;;-128.00;-1.00;-1.00;18881;296;7505176;-36
2023/05/21 06:30:06;;;;;;;4.80;3.00;;;;;;;-128.00;-1.00;-1.00;18886;296;7504256;-36
2023/05/21 06:32:31;;;;;;;8.20;3.30;;;;;;;-128.00;-1.00;-1.00;18494;296;7506664;-32
2023/05/21 06:34:57;;;;;;;4.30;2.90;;;;;;;-128.00;-1.00;-1.00;18492;296;7504758;-35
2023/05/21 06:37:23;;;;;;;5.60;4.10;;;;;;;-128.00;-1.00;-1.00;18858;298;7504524;-33
2023/05/21 06:39:49;;;;;;;7.10;4.50;;;;;;;-128.00;-1.00;-1.00;18895;347;7504902;-33
2023/05/21 06:42:15;;;;;;;4.60;4.10;;;;;;;-128.00;-1.00;-1.00;18890;320;7504197;-32
2023/05/21 06:44:42;;;;;;;4.40;3.80;;;;;;;-128.00;-1.00;-1.00;18932;287;7504958;-32
2023/05/21 06:47:08;;;;;;;5.50;3.80;;;;;;;-128.00;-1.00;-1.00;18873;296;7504468;-32
2023/05/21 06:49:34;;;;;;;3.30;2.70;;;;;;;-128.00;-1.00;-1.00;18878;308;7504400;-32
2023/05/21 06:52:01;;;;;;;4.10;3.60;;;;;;;-128.00;-1.00;-1.00;18903;288;7504706;-36
2023/05/21 06:54:26;;;;;;;6.20;3.90;;;;;;;-128.00;-1.00;-1.00;18490;296;7504888;-34
2023/05/21 06:56:52;;;;;;;5.20;3.30;;;;;;;-128.00;-1.00;-1.00;18893;296;7504482;-36
2023/05/21 06:59:19;;;;;;;19.20;14.10;;;;;;;-128.00;-1.00;-1.00;18913;295;7504187;-33
2023/05/21 07:01:45;;;;;;;17.60;13.60;;;;;;;-128.00;-1.00;-1.00;18831;287;7505385;-36
2023/05/21 07:04:11;;;;;;;6.20;5.10;;;;;;;-128.00;-1.00;-1.00;18906;295;7504796;-32
2023/05/21 07:06:37;;;;;;;3.50;3.20;;;;;;;-128.00;-1.00;-1.00;18495;295;7504612;-36
2023/05/21 07:09:04;;;;;;;4.30;3.40;;;;;;;-128.00;-1.00;-1.00;18479;348;7505772;-31
2023/05/21 07:11:31;;;;;;;4.80;4.10;;;;;;;-128.00;-1.00;-1.00;18488;296;7504444;-37
2023/05/21 07:13:57;;;;;;;4.30;3.90;;;;;;;-128.00;-1.00;-1.00;18482;288;7504452;-35
2023/05/21 07:16:23;;;;;;;3.40;2.90;;;;;;;-128.00;-1.00;-1.00;18474;296;7504886;-32
2023/05/21 07:18:48;;;;;;;4.10;3.30;;;;;;;-128.00;-1.00;-1.00;18474;288;7506048;-33
2023/05/21 07:21:15;;;;;;;11.50;6.30;;;;;;;-128.00;-1.00;-1.00;18876;296;7504498;-35
2023/05/21 07:23:41;;;;;;;3.80;2.90;;;;;;;-128.00;-1.00;-1.00;18883;296;7504995;-34
2023/05/21 07:26:09;;;;;;;3.60;2.90;;;;;;;-128.00;-1.00;-1.00;18882;295;7506499;-35
2023/05/21 07:28:34;;;;;;;4.30;2.40;;;;;;;-128.00;-1.00;-1.00;18480;348;7505387;-36
2023/05/21 07:31:00;;;;;;;4.30;3.50;;;;;;;-128.00;-1.00;-1.00;18458;343;7504638;-33
2023/05/21 07:33:26;;;;;;;5.90;3.50;;;;;;;-128.00;-1.00;-1.00;18889;287;7505315;-36
2023/05/21 07:35:52;;;;;;;3.70;2.60;;;;;;;-128.00;-1.00;-1.00;18475;296;7504968;-35
2023/05/21 07:38:18;;;;;;;3.70;2.80;;;;;;;-128.00;-1.00;-1.00;18471;296;7505125;-33
2023/05/21 07:40:44;;;;;;;5.10;3.30;;;;;;;-128.00;-1.00;-1.00;18891;295;7504428;-36
2023/05/21 07:43:11;;;;;;;4.00;2.90;;;;;;;-128.00;-1.00;-1.00;18902;288;7504733;-33
2023/05/21 07:45:37;;;;;;;3.30;2.50;;;;;;;-128.00;-1.00;-1.00;18439;307;7505803;-36
2023/05/21 07:48:03;;;;;;;8.90;3.10;;;;;;;-128.00;-1.00;-1.00;18874;296;7504793;-32
2023/05/21 07:50:30;;;;;;;4.60;3.10;;;;;;;-128.00;-1.00;-1.00;18886;300;7505137;-32
2023/05/21 07:52:56;;;;;;;2.70;2.40;;;;;;;-128.00;-1.00;-1.00;18202;288;8192870;-32
2023/05/21 07:55:22;;;;;;;7.80;2.70;;;;;;;-128.00;-1.00;-1.00;18874;336;7504433;-34
2023/05/21 07:57:48;;;;;;;3.70;2.60;;;;;;;-128.00;-1.00;-1.00;18866;316;7504232;-36
2023/05/21 08:00:14;;;;;;;5.10;2.60;;;;;;;-128.00;-1.00;-1.00;18872;288;7504972;-36
2023/05/21 08:02:41;;;;;;;3.40;2.80;;;;;;;-128.00;-1.00;-1.00;18902;347;7504406;-32
2023/05/21 08:05:07;;;;;;;13.60;3.50;;;;;;;-128.00;-1.00;-1.00;18879;296;7504902;-33
2023/05/21 08:07:33;;;;;;;6.40;3.10;;;;;;;-128.00;-1.00;-1.00;18937;296;7504713;-36
2023/05/21 08:10:00;;;;;;;5.30;3.00;;;;;;;-128.00;-1.00;-1.00;18867;310;7504619;-37
2023/05/21 08:12:26;;;;;;;6.80;3.20;;;;;;;-128.00;-1.00;-1.00;18891;319;7505042;-37
2023/05/21 08:14:52;;;;;;;9.50;3.60;;;;;;;-128.00;-1.00;-1.00;18922;296;7504156;-36
2023/05/21 08:17:18;;;;;;;5.70;2.90;;;;;;;-128.00;-1.00;-1.00;18904;296;7504510;-35
2023/05/21 08:19:44;;;;;;;4.60;2.70;;;;;;;-128.00;-1.00;-1.00;18875;288;7504332;-32
2023/05/21 08:22:10;;;;;;;6.10;2.90;;;;;;;-128.00;-1.00;-1.00;18894;288;7505366;-37
2023/05/21 08:24:37;;;;;;;12.80;2.70;;;;;;;-128.00;-1.00;-1.00;18879;298;7504378;-35
2023/05/21 08:27:03;;;;;;;4.00;3.10;;;;;;;-128.00;-1.00;-1.00;18904;295;7504629;-32
2023/05/21 08:29:30;;;;;;;6.30;2.80;;;;;;;-128.00;-1.00;-1.00;18501;296;7504687;-34
2023/05/21 08:31:56;;;;;;;17.40;3.30;;;;;;;-128.00;-1.00;-1.00;18499;288;7504864;-35
2023/05/21 08:34:22;;;;;;;3.90;2.90;;;;;;;-128.00;-1.00;-1.00;18452;296;7506037;-32
2023/05/21 08:36:48;;;;;;;5.10;2.10;;;;;;;-128.00;-1.00;-1.00;18496;296;7505891;-34
2023/05/21 08:39:14;;;;;;;12.60;10.70;;;;;;;-128.00;-1.00;-1.00;18464;297;7506067;-37
2023/05/21 08:41:40;;;;;;;1.90;1.30;;;;;;;-128.00;-1.00;-1.00;18501;295;7506583;-32
2023/05/21 08:44:09;;;;;;;2.90;2.70;;;;;;;-128.00;-1.00;-1.00;18482;296;7506027;-32
2023/05/21 08:46:35;;;;;;;10.30;3.60;;;;;;;-128.00;-1.00;-1.00;18494;296;7506520;-36
2023/05/21 08:49:01;;;;;;;28.30;19.20;;;;;;;-128.00;-1.00;-1.00;18506;336;7504925;-33
2023/05/21 08:51:29;;;;;;;4.60;2.60;;;;;;;-128.00;-1.00;-1.00;18489;296;7504370;-37
2023/05/21 08:53:55;;;;;;;3.30;2.10;;;;;;;-128.00;-1.00;-1.00;18462;307;7505892;-35
2023/05/21 08:56:22;;;;;;;8.50;4.00;;;;;;;-128.00;-1.00;-1.00;18522;343;7504726;-31
2023/05/21 08:58:48;;;;;;;3.00;1.30;;;;;;;-128.00;-1.00;-1.00;18511;295;7504811;-32
2023/05/21 09:01:17;;;;;;;13.40;5.30;;;;;;;-128.00;-1.00;-1.00;18463;319;7504626;-36
2023/05/21 09:03:43;;;;;;;3.00;2.70;;;;;;;-128.00;-1.00;-1.00;18473;296;7504560;-36
2023/05/21 09:06:10;;;;;;;6.50;1.90;;;;;;;-128.00;-1.00;-1.00;18894;288;7504907;-36
2023/05/21 09:08:37;;;;;;;4.80;3.70;;;;;;;-128.00;-1.00;-1.00;18480;336;7506205;-32
2023/05/21 09:11:03;;;;;;;3.40;2.80;;;;;;;-128.00;-1.00;-1.00;18508;319;7504487;-32
2023/05/21 09:13:28;;;;;;;3.00;2.20;;;;;;;-128.00;-1.00;-1.00;18481;297;7505067;-35
2023/05/21 09:15:54;;;;;;;2.20;1.90;;;;;;;-128.00;-1.00;-1.00;18515;295;7504193;-35
2023/05/21 09:18:20;;;;;;;3.30;2.00;;;;;;;-128.00;-1.00;-1.00;18916;296;7504901;-35
2023/05/21 09:20:47;;;;;;;2.80;2.20;;;;;;;-128.00;-1.00;-1.00;18887;296;7505485;-35
2023/05/21 09:23:16;;;;;;;2.60;2.10;;;;;;;-128.00;-1.00;-1.00;18881;347;7505239;-31
2023/05/21 09:25:45;;;;;;;5.90;2.20;;;;;;;-128.00;-1.00;-1.00;18497;336;7504878;-32
2023/05/21 09:28:11;;;;;;;2.50;2.30;;;;;;;-128.00;-1.00;-1.00;18467;296;7504098;-32
2023/05/21 09:30:43;;;;;;;4.80;2.20;;;;;;;-128.00;-1.00;-1.00;18502;295;7504743;-36
2023/05/21 09:33:09;;;;;;;5.10;3.20;;;;;;;-128.00;-1.00;-1.00;18512;295;7504622;-32
2023/05/21 09:35:36;;;;;;;7.80;2.80;;;;;;;-128.00;-1.00;-1.00;18901;288;7504814;-35
2023/05/21 09:38:02;;;;;;;12.10;10.90;;;;;;;-128.00;-1.00;-1.00;18488;295;7507563;-31
2023/05/21 09:40:28;;;;;;;8.40;4.00;;;;;;;-128.00;-1.00;-1.00;18899;296;7504930;-36
2023/05/21 09:42:54;;;;;;;3.50;2.00;;;;;;;-128.00;-1.00;-1.00;18890;331;7504510;-35
2023/05/21 09:45:22;;;;;;;9.00;1.80;;;;;;;-128.00;-1.00;-1.00;18861;296;7505050;-32
2023/05/21 09:47:48;;;;;;;2.60;1.80;;;;;;;-128.00;-1.00;-1.00;18492;296;7504776;-35
2023/05/21 09:50:24;;;;;;;5.00;1.90;;;;;;;-128.00;-1.00;-1.00;18479;288;7505062;-32
2023/05/21 09:52:51;;;;;;;15.20;2.10;;;;;;;-128.00;-1.00;-1.00;18481;343;7505684;-32
2023/05/21 09:55:17;;;;;;;2.70;1.80;;;;;;;-128.00;-1.00;-1.00;18529;295;7504344;-36
2023/05/21 09:57:45;;;;;;;1.90;1.40;;;;;;;-128.00;-1.00;-1.00;18487;288;7504449;-32
2023/05/21 10:00:23;;;;;;;4.90;3.70;;;;;;;-128.00;-1.00;-1.00;18470;347;7504817;-36
2023/05/21 10:02:53;;;;;;;2.30;1.90;;;;;;;-128.00;-1.00;-1.00;18503;296;7506183;-36
2023/05/21 10:05:19;;;;;;;12.90;3.80;;;;;;;-128.00;-1.00;-1.00;18479;296;7505945;-32
2023/05/21 10:07:49;;;;;;;3.10;2.50;;;;;;;-128.00;-1.00;-1.00;18472;295;7505096;-32
2023/05/21 10:10:18;;;;;;;5.90;3.10;;;;;;;-128.00;-1.00;-1.00;18500;296;7506312;-35
2023/05/21 10:12:46;;;;;;;2.10;1.70;;;;;;;-128.00;-1.00;-1.00;18492;319;7504658;-32
2023/05/21 10:15:15;;;;;;;5.20;3.30;;;;;;;-128.00;-1.00;-1.00;18474;287;7504242;-35
2023/05/21 10:17:40;;;;;;;6.50;1.60;;;;;;;-128.00;-1.00;-1.00;18525;296;7506439;-35
2023/05/21 10:20:07;;;;;;;8.80;3.90;;;;;;;-128.00;-1.00;-1.00;18504;288;7504187;-31
2023/05/21 10:22:33;;;;;;;1.90;1.20;;;;;;;-128.00;-1.00;-1.00;18480;288;7506204;-35
2023/05/21 10:25:00;;;;;;;6.60;6.00;;;;;;;-128.00;-1.00;-1.00;18493;296;7504392;-31
2023/05/21 10:27:26;;;;;;;2.00;1.70;;;;;;;-128.00;-1.00;-1.00;18493;296;7504208;-32
2023/05/21 10:29:52;;;;;;;3.80;2.20;;;;;;;-128.00;-1.00;-1.00;18454;297;7505158;-36
2023/05/21 10:32:17;;;;;;;5.70;1.50;;;;;;;-128.00;-1.00;-1.00;18508;295;7504434;-34
2023/05/21 10:34:43;;;;;;;7.20;2.10;;;;;;;-128.00;-1.00;-1.00;18508;296;7504613;-37
2023/05/21 10:37:09;;;;;;;2.40;2.10;;;;;;;-128.00;-1.00;-1.00;18495;295;7504453;-32
2023/05/21 10:39:36;;;;;;;10.70;1.60;;;;;;;-128.00;-1.00;-1.00;18466;284;7505991;-32
2023/05/21 10:42:14;;;;;;;8.80;2.70;;;;;;;-128.00;-1.00;-1.00;18520;296;7504144;-36
2023/05/21 10:45:00;;;;;;;8.80;2.20;;;;;;;-128.00;-1.00;-1.00;18467;296;7504347;-32
2023/05/21 10:47:53;;;;;;;18.30;10.90;;;;;;;-128.00;-1.00;-1.00;18498;296;7506857;-31
2023/05/21 10:50:40;;;;;;;7.90;6.10;;;;;;;-128.00;-1.00;-1.00;18476;296;7504488;-36
2023/05/21 10:53:21;;;;;;;11.10;3.70;;;;;;;-128.00;-1.00;-1.00;18499;296;7504653;-32
2023/05/21 10:55:51;;;;;;;3.80;2.20;;;;;;;-128.00;-1.00;-1.00;18513;296;7506166;-36
2023/05/21 10:58:40;;;;;;;4.20;2.80;;;;;;;-128.00;-1.00;-1.00;18475;284;7504424;-31
2023/05/21 11:01:06;;;;;;;4.30;1.70;;;;;;;-128.00;-1.00;-1.00;18468;296;7506197;-31
2023/05/21 11:03:32;;;;;;;2.20;2.00;;;;;;;-128.00;-1.00;-1.00;18469;287;7504531;-37
2023/05/21 11:46:08;;;;;;;2.20;1.40;;;;;;;-97.08;6.18;19933.07;98223;298;1543662;-32
2023/05/21 11:48:34;;;;;;;1.80;1.60;;;;;;;-128.00;-1.00;-1.00;97375;288;1003154;-32
2023/05/21 11:51:00;;;;;;;4.10;1.70;;;;;;;-128.00;-1.00;-1.00;97799;298;1003870;-31
2023/05/21 11:53:28;;;;;;;3.30;1.60;;;;;;;-128.00;-1.00;-1.00;97667;299;1004097;-31
2023/05/21 11:55:56;;;;;;;8.80;2.30;;;;;;;-128.00;-1.00;-1.00;89445;298;3003833;-32
2023/05/21 11:58:21;;;;;;;2.80;1.90;;;;;;;-128.00;-1.00;-1.00;97799;298;1003840;-32
2023/05/21 12:00:49;;;;;;;2.40;1.30;;;;;;;-128.00;-1.00;-1.00;97809;298;1004942;-39
2023/05/21 12:03:15;;;;;;;2.30;1.50;;;;;;;-128.00;-1.00;-1.00;97792;297;1004249;-38
2023/05/21 12:05:46;;;;;;;3.10;1.80;;;;;;;-128.00;-1.00;-1.00;97845;298;1002982;-32